Time;durP1;ratioP1;P1;durP2;ratioP2;P2;SDS_P1;SDS_P2;PMS_P1;PMS_P2;Temp;Humidity;BMP_temperature;BMP_pressure;BME280_temperature;BME280_humidity;BME280_pressure;Samples;Min_cycle;Max_cycle;Signal;HPM_P1;HPM_P2
2021/04/06 00:02:16;;;;;;;6.10;2.60;;;3.90;64.20;;;;;;5087454;28;20114;-76
2021/04/06 00:04:46;;;;;;;4.40;3.15;;;3.80;64.10;;;;;;5082333;28;20040;-76
2021/04/06 00:07:15;;;;;;;5.45;3.17;;;3.80;64.90;;;;;;5091576;28;20043;-75
2021/04/06 00:09:45;;;;;;;4.10;2.92;;;3.80;64.40;;;;;;5094805;28;20052;-76
2021/04/06 00:12:15;;;;;;;6.03;2.80;;;3.80;64.40;;;;;;5094307;28;20127;-75
2021/04/06 00:14:42;;;;;;;13.93;5.07;;;3.80;64.50;;;;;;5094555;28;20506;-73
2021/04/06 00:17:10;;;;;;;5.43;3.40;;;3.80;64.70;;;;;;5094780;28;20027;-74
2021/04/06 00:19:41;;;;;;;5.82;3.80;;;3.80;64.80;;;;;;5094606;28;20103;-75
2021/04/06 00:22:10;;;;;;;4.82;4.18;;;3.80;64.90;;;;;;5090375;28;20374;-75
2021/04/06 00:24:40;;;;;;;4.55;3.10;;;3.80;65.10;;;;;;5090143;28;20044;-75
2021/04/06 00:27:26;;;;;;;5.82;2.88;;;3.80;65.10;;;;;;5094518;28;20023;-75
2021/04/06 00:30:08;;;;;;;6.75;3.25;;;3.70;65.20;;;;;;5094446;28;20027;-75
2021/04/06 00:32:34;;;;;;;4.65;2.92;;;3.70;65.30;;;;;;5085824;28;20039;-75
2021/04/06 00:35:02;;;;;;;4.28;2.95;;;3.70;65.50;;;;;;5094413;28;20028;-76
2021/04/06 00:37:28;;;;;;;7.18;3.25;;;3.70;65.70;;;;;;5094469;28;20411;-74
2021/04/06 00:40:08;;;;;;;4.68;3.15;;;3.70;65.70;;;;;;5095678;28;20472;-75
2021/04/06 00:42:35;;;;;;;6.97;3.28;;;3.70;65.80;;;;;;5103388;28;20045;-76
2021/04/06 00:45:08;;;;;;;8.60;3.92;;;3.70;66.00;;;;;;5109447;28;20024;-74
2021/04/06 00:47:34;;;;;;;4.38;3.20;;;3.60;66.00;;;;;;5094977;28;20024;-76
2021/04/06 00:50:13;;;;;;;4.65;3.25;;;3.60;66.20;;;;;;5078972;28;20159;-75
2021/04/06 00:52:46;;;;;;;5.55;3.35;;;3.60;66.20;;;;;;5094259;28;20031;-74
2021/04/06 00:55:17;;;;;;;6.40;3.40;;;3.60;66.20;;;;;;5080573;28;20051;-74
2021/04/06 00:57:44;;;;;;;5.18;3.67;;;3.60;66.20;;;;;;5094124;28;20109;-75
2021/04/06 01:00:21;;;;;;;5.60;3.45;;;3.60;66.20;;;;;;5094051;28;20102;-76
2021/04/06 01:03:01;;;;;;;4.55;2.92;;;3.60;66.20;;;;;;5092777;28;20024;-74
2021/04/06 01:05:28;;;;;;;8.07;3.45;;;3.60;66.20;;;;;;5085801;28;20016;-74
2021/04/06 01:07:58;;;;;;;6.20;3.72;;;3.60;67.00;;;;;;5093265;28;20009;-74
2021/04/06 01:10:25;;;;;;;4.95;3.42;;;3.60;66.40;;;;;;5093353;28;20071;-75
2021/04/06 01:12:51;;;;;;;5.60;3.25;;;3.60;66.60;;;;;;5093871;28;20057;-74
2021/04/06 01:15:18;;;;;;;5.22;3.10;;;3.50;66.60;;;;;;5093423;28;20511;-76
2021/04/06 01:17:45;;;;;;;3.67;2.60;;;3.50;66.60;;;;;;5093517;28;20060;-75
2021/04/06 01:20:15;;;;;;;5.80;2.73;;;3.50;66.60;;;;;;5093494;28;20027;-74
2021/04/06 01:22:42;;;;;;;4.88;3.33;;;3.60;66.70;;;;;;5093773;28;20050;-75
2021/04/06 01:25:28;;;;;;;6.90;3.63;;;3.50;66.70;;;;;;5093428;28;20380;-73
2021/04/06 01:28:08;;;;;;;7.13;4.10;;;3.50;66.70;;;;;;5093499;28;20055;-74
2021/04/06 01:30:45;;;;;;;10.05;3.92;;;3.50;66.80;;;;;;5093316;28;20016;-74
2021/04/06 01:33:21;;;;;;;4.97;3.10;;;3.50;67.00;;;;;;5093427;28;20051;-76
2021/04/06 01:35:56;;;;;;;5.90;3.70;;;3.40;67.00;;;;;;5092960;28;20108;-74
2021/04/06 01:38:27;;;;;;;5.03;3.88;;;3.40;67.20;;;;;;5093162;28;20027;-75
2021/04/06 01:40:58;;;;;;;6.57;4.00;;;3.40;67.40;;;;;;5093352;28;20032;-75
2021/04/06 01:43:28;;;;;;;7.15;3.42;;;3.40;67.40;;;;;;5093417;28;20024;-74
2021/04/06 01:46:06;;;;;;;7.05;3.65;;;3.40;67.30;;;;;;5091698;28;20028;-75
2021/04/06 01:48:33;;;;;;;4.60;3.45;;;3.40;67.60;;;;;;5092978;28;20060;-75
2021/04/06 01:51:00;;;;;;;6.00;3.93;;;3.40;67.60;;;;;;5093071;28;20571;-74
2021/04/06 01:53:26;;;;;;;7.83;4.97;;;3.40;67.80;;;;;;5093207;28;20392;-77
2021/04/06 01:56:03;;;;;;;4.47;3.85;;;3.40;67.70;;;;;;5092914;28;20084;-77
2021/04/06 01:58:30;;;;;;;5.55;3.88;;;3.40;68.00;;;;;;5091889;28;20036;-76
2021/04/06 02:04:03;;;;;;;8.00;4.25;;;3.30;67.90;;;;;;5058938;28;20356;-74
2021/04/06 02:06:33;;;;;;;7.93;5.47;;;3.30;68.30;;;;;;5092646;28;20027;-75
2021/04/06 02:08:59;;;;;;;11.05;4.35;;;3.30;68.50;;;;;;5091388;28;20032;-75
2021/04/06 02:11:29;;;;;;;6.82;4.20;;;3.30;69.30;;;;;;5092504;28;20046;-74
2021/04/06 02:14:25;;;;;;;11.88;4.15;;;3.20;68.60;;;;;;5091339;28;20028;-75
2021/04/06 02:16:56;;;;;;;7.63;4.47;;;3.30;68.70;;;;;;5076418;28;20092;-75
2021/04/06 02:19:32;;;;;;;6.10;4.60;;;3.30;68.70;;;;;;5092496;28;20032;-75
2021/04/06 02:22:05;;;;;;;7.00;5.45;;;3.20;68.80;;;;;;5104654;28;20414;-78
2021/04/06 02:24:43;;;;;;;7.47;4.50;;;3.30;69.00;;;;;;5092628;28;20077;-74
2021/04/06 02:27:22;;;;;;;5.82;4.18;;;3.30;69.10;;;;;;5092535;28;20070;-75
2021/04/06 02:29:51;;;;;;;8.05;4.82;;;3.30;69.00;;;;;;5092314;28;20029;-75
2021/04/06 02:32:19;;;;;;;8.45;4.63;;;3.20;69.10;;;;;;5100638;28;20020;-75
2021/04/06 02:34:47;;;;;;;5.35;3.95;;;3.20;69.30;;;;;;5100279;28;20086;-75
2021/04/06 02:37:17;;;;;;;7.45;4.75;;;3.30;69.40;;;;;;5092751;28;20012;-76
2021/04/06 02:39:43;;;;;;;7.93;4.50;;;3.30;69.40;;;;;;5092420;28;20073;-75
2021/04/06 02:42:26;;;;;;;9.13;4.82;;;3.20;69.30;;;;;;5092382;28;20016;-75
2021/04/06 02:45:08;;;;;;;6.88;5.47;;;3.20;69.40;;;;;;5090969;28;20055;-75
2021/04/06 02:47:36;;;;;;;8.65;5.13;;;3.20;69.40;;;;;;5092741;28;20024;-74
2021/04/06 02:50:05;;;;;;;8.73;4.53;;;3.20;69.50;;;;;;5090918;28;20055;-75
2021/04/06 02:52:30;;;;;;;12.85;5.45;;;3.20;69.70;;;;;;5092531;28;20024;-74
2021/04/06 02:54:57;;;;;;;9.52;4.68;;;3.20;69.80;;;;;;5092214;28;20469;-74
2021/04/06 02:57:25;;;;;;;9.57;5.15;;;3.20;69.90;;;;;;5092269;28;20020;-75
2021/04/06 02:59:52;;;;;;;8.02;5.05;;;3.20;70.00;;;;;;5092656;28;20457;-74
2021/04/06 03:02:19;;;;;;;9.23;5.47;;;3.10;70.30;;;;;;5091962;28;20032;-74
2021/04/06 03:04:45;;;;;;;5.60;4.60;;;3.10;70.50;;;;;;5092705;28;20492;-74
2021/04/06 03:07:24;;;;;;;9.43;4.43;;;3.10;70.70;;;;;;5093084;28;20358;-75
2021/04/06 03:09:59;;;;;;;9.40;5.22;;;3.10;71.00;;;;;;5092219;28;20388;-75
2021/04/06 03:12:30;;;;;;;8.30;4.97;;;3.10;70.90;;;;;;5091960;28;20097;-76
2021/04/06 03:14:58;;;;;;;12.20;5.35;;;3.10;71.00;;;;;;5090758;28;20443;-75
2021/04/06 03:17:24;;;;;;;;;;;3.10;71.10;;;;;;5092187;28;20130;-73
2021/04/06 03:19:59;;;;;;;10.20;5.43;;;3.10;71.00;;;;;;5091950;28;19951;-74
2021/04/06 03:22:26;;;;;;;6.55;5.10;;;3.10;71.40;;;;;;5091908;28;20031;-74
2021/04/06 03:24:52;;;;;;;9.93;5.80;;;3.10;71.60;;;;;;5092180;28;20027;-74
2021/04/06 03:27:27;;;;;;;12.23;6.22;;;3.10;71.70;;;;;;5091798;28;20036;-75
2021/04/06 03:29:53;;;;;;;11.15;5.38;;;3.10;71.70;;;;;;5091895;28;20435;-75
2021/04/06 03:32:22;;;;;;;8.90;5.40;;;3.10;71.60;;;;;;5094919;28;20028;-74
2021/04/06 03:34:47;;;;;;;11.30;5.75;;;3.20;71.60;;;;;;5095308;28;20509;-75
2021/04/06 03:37:13;;;;;;;8.38;5.45;;;3.20;71.50;;;;;;5094294;28;20045;-76
2021/04/06 03:39:39;;;;;;;11.82;6.38;;;3.20;71.40;;;;;;5095454;28;20110;-75
2021/04/06 03:42:05;;;;;;;12.90;6.55;;;3.20;71.40;;;;;;5095506;28;20154;-75
2021/04/06 03:44:32;;;;;;;11.27;6.25;;;3.20;71.30;;;;;;5094734;28;20024;-75
2021/04/06 03:47:01;;;;;;;9.02;5.53;;;3.20;71.20;;;;;;5096231;28;20127;-75
2021/04/06 03:49:28;;;;;;;11.27;5.93;;;3.30;71.00;;;;;;5095288;28;20031;-76
2021/04/06 03:52:07;;;;;;;10.05;5.47;;;3.40;70.90;;;;;;5095416;28;20430;-77
2021/04/06 03:54:39;;;;;;;8.85;6.30;;;3.40;70.70;;;;;;5095380;28;20376;-75
2021/04/06 03:57:51;;;;;;;15.77;5.82;;;3.50;70.40;;;;;;5095091;28;20040;-75
2021/04/06 04:00:18;;;;;;;12.90;5.55;;;3.60;70.30;;;;;;5012916;28;20421;-75
2021/04/06 04:02:44;;;;;;;16.27;5.63;;;3.60;70.20;;;;;;5013015;28;20419;-75
2021/04/06 04:05:10;;;;;;;12.45;5.47;;;3.70;70.00;;;;;;5012875;28;20029;-75
2021/04/06 04:07:37;;;;;;;10.38;6.95;;;3.70;69.70;;;;;;5012399;28;20036;-74
2021/04/06 04:10:09;;;;;;;7.47;6.03;;;3.70;69.60;;;;;;5012712;28;20026;-76
2021/04/06 04:12:35;;;;;;;13.45;6.35;;;3.80;69.50;;;;;;5011648;28;20026;-75
2021/04/06 04:15:01;;;;;;;12.60;6.18;;;3.90;69.10;;;;;;5012505;28;20046;-75
2021/04/06 04:17:27;;;;;;;11.13;6.40;;;3.90;68.70;;;;;;5012840;28;20229;-75
2021/04/06 04:19:54;;;;;;;13.63;6.38;;;4.00;68.50;;;;;;5013178;28;20534;-75
2021/04/06 04:22:20;;;;;;;14.43;6.17;;;4.00;68.50;;;;;;5026969;28;20038;-75
2021/04/06 04:24:46;;;;;;;7.10;4.43;;;4.10;68.30;;;;;;5022277;28;20275;-77
2021/04/06 04:27:11;;;;;;;9.57;5.50;;;4.40;67.80;;;;;;5012364;28;20104;-75
2021/04/06 04:29:37;;;;;;;8.82;4.97;;;4.70;66.80;;;;;;5012331;28;20095;-76
2021/04/06 04:32:12;;;;;;;13.23;5.78;;;5.00;65.50;;;;;;4995887;28;20511;-76
2021/04/06 04:34:38;;;;;;;11.20;6.30;;;5.30;64.50;;;;;;5073656;28;20047;-76
2021/04/06 04:37:04;;;;;;;8.15;5.10;;;5.80;63.10;;;;;;5094478;28;20388;-77
2021/04/06 04:39:29;;;;;;;12.40;5.50;;;6.00;61.80;;;;;;5094607;28;20444;-76
2021/04/06 04:41:55;;;;;;;14.55;7.65;;;6.20;61.20;;;;;;5093990;28;20381;-76
2021/04/06 04:44:21;;;;;;;13.30;6.05;;;6.40;60.00;;;;;;5094089;28;20422;-75
2021/04/06 04:46:47;;;;;;;7.97;4.95;;;6.40;59.40;;;;;;5094251;28;20380;-75
2021/04/06 04:49:12;;;;;;;13.00;6.70;;;6.50;59.40;;;;;;5094167;28;20020;-75
2021/04/06 04:51:38;;;;;;;12.38;4.82;;;6.70;59.00;;;;;;5093918;28;20024;-75
2021/04/06 04:54:04;;;;;;;10.35;5.65;;;6.90;57.90;;;;;;5093979;28;20078;-76
2021/04/06 04:56:30;;;;;;;9.20;5.78;;;6.80;57.50;;;;;;5094391;28;20499;-76
2021/04/06 04:58:56;;;;;;;11.32;5.70;;;6.40;58.00;;;;;;5094051;28;20020;-77
2021/04/06 05:01:22;;;;;;;15.35;7.47;;;6.10;58.90;;;;;;5093947;28;20135;-77
2021/04/06 05:03:47;;;;;;;8.30;5.82;;;5.80;59.60;;;;;;5093978;28;20103;-76
2021/04/06 05:06:13;;;;;;;10.90;6.32;;;5.60;60.20;;;;;;5096209;28;20376;-76
2021/04/06 05:08:39;;;;;;;12.77;6.65;;;5.50;60.50;;;;;;5094179;28;20099;-76
2021/04/06 05:11:05;;;;;;;13.85;5.68;;;5.40;60.90;;;;;;5093523;28;20036;-76
2021/04/06 05:13:31;;;;;;;14.68;6.45;;;5.30;61.40;;;;;;5093613;28;20381;-76
2021/04/06 05:15:57;;;;;;;20.55;7.10;;;5.30;61.50;;;;;;5093258;28;20469;-76
2021/04/06 05:18:22;;;;;;;10.05;5.45;;;5.40;61.60;;;;;;5093363;28;20032;-76
2021/04/06 05:20:48;;;;;;;23.25;8.63;;;6.00;60.50;;;;;;5093411;28;20385;-75
2021/04/06 05:23:14;;;;;;;14.02;6.93;;;6.20;59.30;;;;;;5093428;28;20051;-76
2021/04/06 05:25:40;;;;;;;15.73;7.50;;;6.20;58.80;;;;;;5093293;28;20032;-75
2021/04/06 05:28:07;;;;;;;9.70;6.07;;;6.10;58.80;;;;;;5093606;28;20499;-77
2021/04/06 05:30:33;;;;;;;12.90;6.82;;;6.00;58.90;;;;;;5091838;28;20028;-77
2021/04/06 05:32:59;;;;;;;15.90;6.53;;;5.90;59.00;;;;;;5093324;28;20088;-78
2021/04/06 05:35:24;;;;;;;8.38;6.15;;;5.90;58.90;;;;;;5093227;28;20123;-77
2021/04/06 05:37:50;;;;;;;6.30;4.85;;;6.00;58.50;;;;;;5093521;28;20032;-77
2021/04/06 05:40:16;;;;;;;9.18;5.05;;;6.10;57.90;;;;;;5093618;28;20024;-77
2021/04/06 05:42:42;;;;;;;11.38;6.63;;;6.10;57.90;;;;;;5092902;28;20392;-78
2021/04/06 05:45:10;;;;;;;12.52;6.50;;;6.20;57.50;;;;;;5092990;28;20051;-77
2021/04/06 05:47:38;;;;;;;16.17;6.03;;;6.30;57.50;;;;;;5093375;28;20024;-78
2021/04/06 05:50:05;;;;;;;7.65;4.55;;;6.40;57.30;;;;;;5093266;28;20020;-78
2021/04/06 05:52:31;;;;;;;22.38;7.22;;;6.40;56.80;;;;;;5092871;28;20028;-76
2021/04/06 05:54:58;;;;;;;8.30;4.43;;;6.50;55.90;;;;;;5092845;28;20563;-77
2021/04/06 05:57:25;;;;;;;9.80;5.37;;;6.60;55.70;;;;;;5092717;28;20047;-76
2021/04/06 05:59:51;;;;;;;9.82;5.97;;;6.60;55.30;;;;;;5092401;28;20027;-75
2021/04/06 06:02:17;;;;;;;12.70;5.82;;;6.70;55.60;;;;;;5092375;28;20032;-76
2021/04/06 06:04:43;;;;;;;11.90;5.63;;;7.10;55.00;;;;;;5082132;28;20028;-76
2021/04/06 06:07:11;;;;;;;5.65;4.25;;;8.30;53.00;;;;;;5090135;28;20020;-76
2021/04/06 06:09:37;;;;;;;8.55;5.65;;;9.70;48.60;;;;;;5093068;28;20029;-78
2021/04/06 06:12:04;;;;;;;11.65;5.13;;;10.70;46.70;;;;;;5093942;28;20048;-77
2021/04/06 06:14:38;;;;;;;12.68;6.15;;;11.60;44.60;;;;;;5111980;28;20042;-77
2021/04/06 06:17:22;;;;;;;11.75;5.20;;;12.70;43.30;;;;;;5094418;28;20035;-75
2021/04/06 06:19:51;;;;;;;14.93;6.03;;;14.10;40.80;;;;;;5080627;28;20020;-77
2021/04/06 06:22:28;;;;;;;10.93;5.78;;;14.60;38.50;;;;;;5092943;28;20020;-77
2021/04/06 06:25:06;;;;;;;15.90;6.00;;;15.00;37.50;;;;;;5080777;28;20468;-77
2021/04/06 06:27:37;;;;;;;14.15;6.35;;;15.80;37.00;;;;;;5092420;28;20032;-83
2021/04/06 06:30:28;;;;;;;10.10;6.10;;;16.50;35.10;;;;;;5092583;28;20104;-82
2021/04/06 06:33:35;;;;;;;14.70;6.75;;;17.30;34.40;;;;;;5092228;28;20016;-82
2021/04/06 06:36:12;;;;;;;25.92;4.93;;;17.30;33.70;;;;;;5087822;28;20050;-80
2021/04/06 06:38:40;;;;;;;11.52;5.82;;;17.20;32.40;;;;;;5093825;28;20012;-79
2021/04/06 06:41:13;;;;;;;;;;;16.30;33.10;;;;;;5094823;28;20114;-79
2021/04/06 06:43:41;;;;;;;15.82;4.53;;;16.80;34.90;;;;;;5093503;28;19904;-79
2021/04/06 06:46:23;;;;;;;9.95;4.72;;;17.00;32.10;;;;;;5092234;28;20141;-80
2021/04/06 06:48:56;;;;;;;10.35;4.72;;;16.50;31.60;;;;;;5092543;28;20059;-79
2021/04/06 06:51:30;;;;;;;12.43;5.13;;;16.60;32.30;;;;;;5091426;28;20346;-80
2021/04/06 06:53:57;;;;;;;10.13;4.80;;;16.50;31.90;;;;;;5092464;28;20134;-81
2021/04/06 06:56:42;;;;;;;10.93;5.57;;;16.10;32.00;;;;;;5092488;28;20119;-80
2021/04/06 06:59:09;;;;;;;10.98;5.10;;;15.60;32.60;;;;;;5092532;28;20024;-79
2021/04/06 07:01:37;;;;;;;11.52;5.13;;;15.30;32.40;;;;;;5093102;28;20035;-79
2021/04/06 07:04:13;;;;;;;10.13;5.05;;;15.30;32.70;;;;;;5093082;28;20024;-78
2021/04/06 07:06:41;;;;;;;7.07;4.85;;;15.80;32.80;;;;;;5093634;28;20031;-79
2021/04/06 07:09:22;;;;;;;9.27;3.85;;;16.50;32.20;;;;;;5096305;28;20054;-79
2021/04/06 07:11:50;;;;;;;7.28;4.30;;;17.50;30.30;;;;;;5095131;28;20048;-79
2021/04/06 07:14:16;;;;;;;4.88;3.17;;;16.90;30.00;;;;;;5096537;28;20020;-80
2021/04/06 07:16:43;;;;;;;11.73;4.10;;;16.50;30.10;;;;;;5096367;28;20051;-80
2021/04/06 07:19:09;;;;;;;9.27;4.55;;;16.70;30.80;;;;;;5096534;28;20020;-81
2021/04/06 07:21:37;;;;;;;9.18;5.00;;;16.90;29.80;;;;;;5096184;28;20541;-78
2021/04/06 07:24:04;;;;;;;4.85;3.58;;;16.50;30.10;;;;;;5096005;28;20020;-79
2021/04/06 07:26:49;;;;;;;13.13;5.32;;;16.20;30.50;;;;;;5095385;28;20028;-79
2021/04/06 07:29:15;;;;;;;7.00;3.85;;;16.20;30.90;;;;;;5095622;28;20032;-79
2021/04/06 07:31:41;;;;;;;8.27;4.90;;;16.40;30.70;;;;;;5095711;28;20333;-79
2021/04/06 07:34:11;;;;;;;7.18;3.58;;;17.30;30.30;;;;;;5097268;28;20021;-78
2021/04/06 07:36:37;;;;;;;11.00;5.03;;;17.10;29.60;;;;;;5095368;28;20454;-78
2021/04/06 07:39:09;;;;;;;13.90;4.93;;;16.70;30.40;;;;;;5095791;28;20016;-78
2021/04/06 07:41:44;;;;;;;10.40;4.88;;;17.10;30.10;;;;;;5095603;28;20031;-80
2021/04/06 07:44:12;;;;;;;11.52;4.70;;;18.20;29.40;;;;;;5095518;28;20024;-79
2021/04/06 07:46:43;;;;;;;16.25;5.80;;;17.70;28.80;;;;;;5095258;28;20020;-78
2021/04/06 07:49:37;;;;;;;11.38;4.00;;;17.20;29.30;;;;;;5095410;28;20024;-79
2021/04/06 07:52:16;;;;;;;15.27;4.93;;;17.20;29.90;;;;;;5094379;28;20108;-80
2021/04/06 07:54:45;;;;;;;4.97;4.05;;;17.90;29.40;;;;;;5099520;28;20103;-79
2021/04/06 07:57:11;;;;;;;8.88;4.93;;;17.90;28.60;;;;;;5095457;28;20027;-78
2021/04/06 07:59:37;;;;;;;12.18;5.20;;;17.80;29.20;;;;;;5094189;28;20035;-79
2021/04/06 08:02:06;;;;;;;6.63;4.00;;;18.30;29.00;;;;;;5095258;28;20107;-80
2021/04/06 08:04:38;;;;;;;8.23;4.50;;;19.30;27.90;;;;;;5094114;28;20698;-79
2021/04/06 08:07:36;;;;;;;12.30;4.88;;;18.40;28.30;;;;;;5098731;28;20032;-79
2021/04/06 08:10:11;;;;;;;6.53;3.60;;;18.30;29.00;;;;;;5103531;28;20123;-77
2021/04/06 08:12:38;;;;;;;8.85;4.05;;;18.60;28.20;;;;;;5095890;28;20483;-79
2021/04/06 08:15:04;;;;;;;4.45;3.55;;;17.50;28.50;;;;;;5095190;28;20409;-81
2021/04/06 08:17:30;;;;;;;7.18;3.60;;;17.80;28.70;;;;;;5093542;28;20032;-79
2021/04/06 08:19:59;;;;;;;7.80;4.57;;;17.30;28.60;;;;;;5093822;28;20480;-79
2021/04/06 08:22:44;;;;;;;7.22;4.75;;;16.60;29.30;;;;;;5094793;28;20028;-79
2021/04/06 08:25:16;;;;;;;12.02;5.57;;;16.30;29.90;;;;;;5093134;28;20028;-79
2021/04/06 08:27:50;;;;;;;13.30;4.18;;;16.70;29.90;;;;;;5094429;28;20107;-80
2021/04/06 08:30:19;;;;;;;13.38;4.97;;;17.30;29.20;;;;;;5095240;28;20031;-78
2021/04/06 08:33:07;;;;;;;14.38;5.15;;;17.40;29.40;;;;;;5095482;28;20017;-80
2021/04/06 08:35:45;;;;;;;9.07;4.65;;;18.50;28.90;;;;;;5097538;28;20354;-79
2021/04/06 08:38:21;;;;;;;8.30;4.72;;;18.90;28.10;;;;;;5100455;28;20258;-80
2021/04/06 08:40:57;;;;;;;6.25;4.78;;;19.60;27.60;;;;;;5093605;28;20032;-82
2021/04/06 08:43:30;;;;;;;13.07;5.07;;;20.30;27.00;;;;;;5094546;28;20027;-79
2021/04/06 08:45:57;;;;;;;11.45;5.55;;;20.90;26.70;;;;;;5094274;28;20028;-79
2021/04/06 08:48:45;;;;;;;9.23;5.18;;;20.90;25.90;;;;;;5094167;28;20111;-79
2021/04/06 08:51:25;;;;;;;9.88;5.25;;;19.30;27.00;;;;;;5094311;28;20039;-79
2021/04/06 08:53:54;;;;;;;11.57;4.80;;;19.10;27.50;;;;;;5082006;28;20028;-79
2021/04/06 08:56:24;;;;;;;8.82;4.15;;;18.50;27.60;;;;;;5094545;28;20017;-78
2021/04/06 08:58:51;;;;;;;6.57;4.70;;;18.30;28.00;;;;;;5095572;28;20055;-79
2021/04/06 09:01:20;;;;;;;9.63;5.00;;;18.00;28.20;;;;;;5094607;28;20099;-78
2021/04/06 09:03:46;;;;;;;7.32;4.35;;;18.20;28.40;;;;;;5093844;28;20020;-80
2021/04/06 09:06:13;;;;;;;8.95;4.32;;;18.70;28.50;;;;;;5095186;28;20401;-79
2021/04/06 09:08:56;;;;;;;11.57;5.32;;;18.60;27.70;;;;;;5093078;28;20111;-80
2021/04/06 09:11:25;;;;;;;11.85;4.57;;;18.10;28.50;;;;;;5081338;28;20481;-78
2021/04/06 09:14:00;;;;;;;7.93;4.88;;;18.00;28.60;;;;;;5093609;28;20434;-80
2021/04/06 09:16:32;;;;;;;7.50;4.47;;;18.50;28.40;;;;;;5092391;28;20024;-80
2021/04/06 09:19:16;;;;;;;9.48;6.50;;;18.30;28.30;;;;;;5093684;28;20103;-79
2021/04/06 09:21:45;;;;;;;6.72;4.93;;;17.80;28.80;;;;;;5093979;28;20101;-80
2021/04/06 09:24:13;;;;;;;6.22;4.97;;;17.80;29.10;;;;;;5093397;28;20022;-79
2021/04/06 09:26:39;;;;;;;;;;;17.80;29.10;;;;;;5094192;28;20032;-79
2021/04/06 09:29:16;;;;;;;10.10;4.82;;;18.00;29.20;;;;;;5093403;28;19999;-77
2021/04/06 09:31:51;;;;;;;7.05;5.00;;;18.50;28.90;;;;;;5080625;28;20475;-79
2021/04/06 09:34:24;;;;;;;6.28;5.13;;;19.30;28.20;;;;;;5093990;28;20028;-79
2021/04/06 09:37:07;;;;;;;9.30;5.00;;;19.20;27.80;;;;;;5102591;28;20028;-80
2021/04/06 09:39:35;;;;;;;7.15;4.43;;;19.00;28.00;;;;;;5099823;28;20373;-80
2021/04/06 09:42:02;;;;;;;9.38;4.75;;;18.40;28.30;;;;;;5093615;28;20016;-79
2021/04/06 09:44:36;;;;;;;7.60;4.97;;;17.00;29.40;;;;;;5093784;28;20032;-80
2021/04/06 09:47:06;;;;;;;12.55;6.03;;;16.40;30.40;;;;;;5093175;28;20036;-79
2021/04/06 09:49:36;;;;;;;8.27;5.50;;;16.40;30.70;;;;;;5093209;28;20059;-80
2021/04/06 09:52:06;;;;;;;7.43;4.93;;;16.70;30.50;;;;;;5092055;28;20024;-79
2021/04/06 09:54:37;;;;;;;8.77;5.53;;;16.60;30.50;;;;;;5093161;28;20016;-79
2021/04/06 09:57:11;;;;;;;12.10;6.28;;;16.40;30.70;;;;;;5093553;28;20576;-81
2021/04/06 09:59:44;;;;;;;11.07;5.85;;;15.90;31.40;;;;;;5093216;28;20028;-80
2021/04/06 10:02:22;;;;;;;13.27;7.07;;;15.80;31.60;;;;;;5093542;28;20031;-81
2021/04/06 10:04:49;;;;;;;11.63;6.38;;;15.50;32.60;;;;;;5093792;28;20027;-80
2021/04/06 10:07:25;;;;;;;6.35;5.38;;;15.50;32.60;;;;;;5102503;28;20035;-80
2021/04/06 10:10:07;;;;;;;8.68;5.43;;;15.70;32.20;;;;;;5106288;28;20080;-79
2021/04/06 10:12:36;;;;;;;10.98;6.03;;;15.70;32.00;;;;;;5092552;28;20492;-79
2021/04/06 10:15:03;;;;;;;10.50;6.03;;;15.40;32.60;;;;;;5093188;28;20028;-80
2021/04/06 10:17:40;;;;;;;13.50;7.15;;;16.00;32.20;;;;;;5093042;28;20024;-80
2021/04/06 10:20:11;;;;;;;15.07;7.07;;;16.40;31.70;;;;;;5093374;28;20117;-79
2021/04/06 10:22:56;;;;;;;14.27;5.95;;;16.50;31.20;;;;;;5092863;28;20013;-80
2021/04/06 10:25:24;;;;;;;8.02;5.72;;;16.30;31.40;;;;;;5093152;28;20047;-78
2021/04/06 10:27:51;;;;;;;7.60;5.97;;;15.60;31.80;;;;;;5092907;28;20473;-80
2021/04/06 10:30:31;;;;;;;9.75;6.13;;;14.50;33.30;;;;;;5092685;28;20416;-80
2021/04/06 10:33:31;;;;;;;13.73;6.72;;;14.00;34.50;;;;;;5092627;28;20103;-79
2021/04/06 10:36:04;;;;;;;10.63;5.22;;;13.60;35.40;;;;;;5090463;28;20028;-79
2021/04/06 10:38:34;;;;;;;9.18;6.35;;;13.20;36.20;;;;;;5092893;28;20021;-79
2021/04/06 10:41:17;;;;;;;16.35;7.60;;;13.00;36.70;;;;;;5092797;28;20026;-78
2021/04/06 10:43:52;;;;;;;12.02;6.47;;;12.90;37.20;;;;;;5090357;28;20020;-79
2021/04/06 10:46:23;;;;;;;8.55;5.38;;;12.90;37.30;;;;;;5099982;28;20034;-78
2021/04/06 10:49:00;;;;;;;12.90;6.95;;;12.90;37.10;;;;;;5093187;28;20031;-79
2021/04/06 10:51:27;;;;;;;5.43;3.83;;;12.60;37.70;;;;;;5091152;28;20024;-80
2021/04/06 10:53:58;;;;;;;9.95;5.38;;;12.70;37.60;;;;;;5092486;28;20024;-80
2021/04/06 10:56:57;;;;;;;12.18;6.30;;;12.60;37.90;;;;;;5092564;28;20032;-80
2021/04/06 10:59:33;;;;;;;7.80;5.57;;;12.60;37.90;;;;;;5092339;28;20094;-80
2021/04/06 11:02:01;;;;;;;9.00;5.50;;;12.70;37.70;;;;;;5091210;28;20354;-79
2021/04/06 11:04:38;;;;;;;12.80;6.38;;;12.50;37.80;;;;;;5092617;28;20016;-78
2021/04/06 11:07:08;;;;;;;10.45;6.40;;;12.50;38.30;;;;;;5092496;28;20039;-80
2021/04/06 11:09:37;;;;;;;7.97;6.22;;;12.70;38.00;;;;;;5092609;28;20476;-79
2021/04/06 11:12:06;;;;;;;12.90;6.78;;;12.80;37.90;;;;;;5092326;28;20054;-80
2021/04/06 11:14:33;;;;;;;7.88;4.68;;;12.90;37.70;;;;;;5092261;28;20065;-79
2021/04/06 11:17:05;;;;;;;10.18;6.75;;;13.00;37.50;;;;;;5092133;28;20031;-80
2021/04/06 11:19:36;;;;;;;8.63;6.15;;;12.90;37.40;;;;;;5092404;28;20422;-79
2021/04/06 11:22:08;;;;;;;10.68;7.50;;;13.00;37.50;;;;;;5092426;28;20142;-79
2021/04/06 11:24:35;;;;;;;13.18;7.07;;;13.10;37.50;;;;;;5092092;28;20100;-78
2021/04/06 11:27:03;;;;;;;11.80;6.82;;;13.30;37.40;;;;;;5092127;28;20080;-79
2021/04/06 11:29:31;;;;;;;7.05;5.35;;;13.50;37.10;;;;;;5092212;28;20095;-79
2021/04/06 11:32:00;;;;;;;10.43;5.55;;;13.60;36.50;;;;;;5092021;28;20065;-79
2021/04/06 11:34:27;;;;;;;12.85;6.40;;;13.30;36.60;;;;;;5091936;28;20031;-80
2021/04/06 11:36:53;;;;;;;8.10;6.30;;;13.20;37.40;;;;;;5092176;28;20027;-79
2021/04/06 11:39:24;;;;;;;9.93;6.47;;;13.40;37.30;;;;;;5091923;28;20028;-79
2021/04/06 11:41:52;;;;;;;10.65;7.05;;;13.60;37.20;;;;;;5092361;28;20046;-79
2021/04/06 11:44:19;;;;;;;11.02;7.38;;;13.50;37.00;;;;;;5092182;28;20380;-81
2021/04/06 11:46:45;;;;;;;11.07;6.28;;;13.50;37.20;;;;;;5090363;28;20500;-78
2021/04/06 11:49:14;;;;;;;12.13;6.60;;;13.30;37.10;;;;;;5092034;28;20044;-80
2021/04/06 11:51:40;;;;;;;11.38;7.07;;;13.00;37.80;;;;;;5092189;28;20024;-78
2021/04/06 11:54:08;;;;;;;12.00;5.57;;;13.00;38.20;;;;;;5095385;28;20020;-78
2021/04/06 11:56:34;;;;;;;10.23;6.30;;;13.00;38.00;;;;;;5095429;28;20031;-80
2021/04/06 11:59:00;;;;;;;13.80;8.10;;;12.90;38.30;;;;;;5095240;28;20405;-78
2021/04/06 12:01:28;;;;;;;11.73;7.45;;;12.90;38.40;;;;;;5095230;28;20052;-79
2021/04/06 12:03:54;;;;;;;7.85;6.05;;;12.90;38.70;;;;;;5095246;28;20027;-80
2021/04/06 12:06:20;;;;;;;12.02;8.73;;;12.80;38.60;;;;;;5076783;28;20028;-79
2021/04/06 12:08:45;;;;;;;11.68;8.93;;;12.80;38.80;;;;;;5093491;28;20031;-79
2021/04/06 12:11:11;;;;;;;7.47;5.90;;;12.80;38.90;;;;;;5096456;28;20076;-79
2021/04/06 12:13:37;;;;;;;13.98;9.32;;;12.80;38.90;;;;;;5110200;28;20024;-78
2021/04/06 12:16:04;;;;;;;10.88;5.22;;;12.80;39.10;;;;;;5103191;28;20342;-78
2021/04/06 12:18:30;;;;;;;11.93;6.07;;;12.80;38.90;;;;;;5095272;28;20113;-78
2021/04/06 12:20:56;;;;;;;10.73;6.85;;;12.80;39.40;;;;;;5095205;28;20052;-78
2021/04/06 12:23:22;;;;;;;9.40;6.18;;;12.80;39.30;;;;;;5098497;28;20450;-79
2021/04/06 12:25:48;;;;;;;10.70;5.50;;;12.80;39.20;;;;;;5093545;28;20043;-79
2021/04/06 12:28:13;;;;;;;10.65;5.97;;;12.60;39.50;;;;;;5094699;28;20020;-79
2021/04/06 12:30:42;;;;;;;8.30;5.68;;;12.60;39.90;;;;;;5094144;28;20070;-79
2021/04/06 12:33:10;;;;;;;12.68;6.57;;;12.50;40.10;;;;;;5095343;28;20354;-80
2021/04/06 12:35:36;;;;;;;9.88;5.30;;;12.50;40.40;;;;;;5093990;28;20024;-80
2021/04/06 12:38:02;;;;;;;8.75;5.80;;;12.60;40.10;;;;;;5095733;28;20021;-80
2021/04/06 12:40:31;;;;;;;10.85;5.50;;;12.60;40.00;;;;;;5094695;28;20481;-80
2021/04/06 12:42:57;;;;;;;16.70;6.60;;;12.70;39.90;;;;;;5093385;28;20048;-79
2021/04/06 12:45:23;;;;;;;11.90;6.40;;;12.60;40.10;;;;;;5093834;28;20074;-79
2021/04/06 12:47:49;;;;;;;9.45;5.30;;;12.70;40.10;;;;;;5095847;28;20450;-79
2021/04/06 12:50:17;;;;;;;9.05;5.55;;;12.60;40.00;;;;;;5098809;28;20028;-80
2021/04/06 12:52:42;;;;;;;9.02;5.68;;;12.40;40.10;;;;;;5095915;28;20504;-77
2021/04/06 12:55:09;;;;;;;14.88;6.43;;;12.40;40.30;;;;;;5094153;28;20032;-79
2021/04/06 12:57:37;;;;;;;10.63;5.13;;;12.50;40.50;;;;;;5094455;28;20021;-78
2021/04/06 13:00:07;;;;;;;7.95;5.65;;;12.70;40.10;;;;;;5094526;28;20028;-79
2021/04/06 13:02:33;;;;;;;9.85;6.70;;;12.60;40.40;;;;;;5094352;28;20094;-79
2021/04/06 13:05:03;;;;;;;14.15;7.95;;;12.60;40.40;;;;;;5093710;28;20160;-80
2021/04/06 13:07:30;;;;;;;8.35;5.55;;;12.50;40.30;;;;;;5093794;28;20034;-79
2021/04/06 13:09:58;;;;;;;7.50;5.60;;;12.60;40.30;;;;;;5093129;28;20024;-78